sensor_id;sensor_type;location;lat;lon;timestamp;temperature;humidity
75091;DHT22;63674;48.048;8.306;2022-12-19T00:01:22;-2.20;99.90
75091;DHT22;63674;48.048;8.306;2022-12-19T00:03:55;-3.10;99.90
75091;DHT22;63674;48.048;8.306;2022-12-19T00:06:27;-3.50;99.90
75091;DHT22;63674;48.048;8.306;2022-12-19T00:08:57;-3.00;99.90
75091;DHT22;63674;48.048;8.306;2022-12-19T00:11:27;-2.60;99.90
75091;DHT22;63674;48.048;8.306;2022-12-19T00:13:58;-2.70;99.90
75091;DHT22;63674;48.048;8.306;2022-12-19T00:16:28;-3.10;99.90
75091;DHT22;63674;48.048;8.306;2022-12-19T00:18:59;-2.30;99.90
75091;DHT22;63674;48.048;8.306;2022-12-19T00:21:30;-2.70;99.90
75091;DHT22;63674;48.048;8.306;2022-12-19T00:24:01;-1.70;99.90
75091;DHT22;63674;48.048;8.306;2022-12-19T00:26:46;-3.50;99.90
75091;DHT22;63674;48.048;8.306;2022-12-19T00:29:17;-2.70;99.90
75091;DHT22;63674;48.048;8.306;2022-12-19T00:31:45;-3.40;99.90
75091;DHT22;63674;48.048;8.306;2022-12-19T00:34:14;-2.70;99.90
75091;DHT22;63674;48.048;8.306;2022-12-19T00:36:43;-2.00;99.90
75091;DHT22;63674;48.048;8.306;2022-12-19T00:39:11;-3.30;99.90
75091;DHT22;63674;48.048;8.306;2022-12-19T00:41:41;-2.60;99.90
75091;DHT22;63674;48.048;8.306;2022-12-19T00:44:11;-2.60;99.90
75091;DHT22;63674;48.048;8.306;2022-12-19T00:46:42;-3.40;99.90
75091;DHT22;63674;48.048;8.306;2022-12-19T00:49:19;-2.60;99.90
75091;DHT22;63674;48.048;8.306;2022-12-19T00:51:47;-1.00;99.90
75091;DHT22;63674;48.048;8.306;2022-12-19T00:54:16;-1.20;99.90
75091;DHT22;63674;48.048;8.306;2022-12-19T00:56:45;-3.20;99.90
75091;DHT22;63674;48.048;8.306;2022-12-19T00:59:13;-2.90;99.90
75091;DHT22;63674;48.048;8.306;2022-12-19T01:01:53;-2.60;99.90
75091;DHT22;63674;48.048;8.306;2022-12-19T01:04:23;-2.50;99.90
75091;DHT22;63674;48.048;8.306;2022-12-19T01:09:28;-3.00;99.90
75091;DHT22;63674;48.048;8.306;2022-12-19T01:11:56;-1.90;99.90
75091;DHT22;63674;48.048;8.306;2022-12-19T01:17:14;-2.40;99.90
75091;DHT22;63674;48.048;8.306;2022-12-19T01:19:42;-2.80;99.90
75091;DHT22;63674;48.048;8.306;2022-12-19T01:22:11;-3.10;99.90
75091;DHT22;63674;48.048;8.306;2022-12-19T01:24:41;-2.50;99.90
75091;DHT22;63674;48.048;8.306;2022-12-19T01:27:09;-3.30;99.90
75091;DHT22;63674;48.048;8.306;2022-12-19T01:29:38;-2.50;99.90
75091;DHT22;63674;48.048;8.306;2022-12-19T01:32:20;-2.50;99.90
75091;DHT22;63674;48.048;8.306;2022-12-19T01:34:49;-3.30;99.90
75091;DHT22;63674;48.048;8.306;2022-12-19T01:37:18;-2.50;99.90
75091;DHT22;63674;48.048;8.306;2022-12-19T01:39:47;-3.10;99.90
75091;DHT22;63674;48.048;8.306;2022-12-19T01:42:17;-2.00;99.90
75091;DHT22;63674;48.048;8.306;2022-12-19T01:45:24;-2.30;99.90
75091;DHT22;63674;48.048;8.306;2022-12-19T01:48:11;-2.50;99.90
75091;DHT22;63674;48.048;8.306;2022-12-19T01:50:55;-2.30;99.90
75091;DHT22;63674;48.048;8.306;2022-12-19T01:53:32;-3.50;99.90
75091;DHT22;63674;48.048;8.306;2022-12-19T01:56:15;-3.30;99.90
75091;DHT22;63674;48.048;8.306;2022-12-19T01:58:46;-1.10;99.90
75091;DHT22;63674;48.048;8.306;2022-12-19T02:01:16;-2.90;99.90
75091;DHT22;63674;48.048;8.306;2022-12-19T02:03:47;-0.70;99.90
75091;DHT22;63674;48.048;8.306;2022-12-19T02:06:16;-2.20;99.90
75091;DHT22;63674;48.048;8.306;2022-12-19T02:08:47;-2.70;99.90
75091;DHT22;63674;48.048;8.306;2022-12-19T02:11:16;-2.30;99.90
75091;DHT22;63674;48.048;8.306;2022-12-19T02:13:45;-2.20;99.90
75091;DHT22;63674;48.048;8.306;2022-12-19T02:16:21;-2.00;99.90
75091;DHT22;63674;48.048;8.306;2022-12-19T02:19:08;-1.80;99.90
75091;DHT22;63674;48.048;8.306;2022-12-19T02:21:52;-0.40;99.90
75091;DHT22;63674;48.048;8.306;2022-12-19T02:24:53;-0.90;99.90
75091;DHT22;63674;48.048;8.306;2022-12-19T02:27:52;-2.10;99.90
75091;DHT22;63674;48.048;8.306;2022-12-19T02:30:40;-2.10;99.90
75091;DHT22;63674;48.048;8.306;2022-12-19T02:33:16;-2.20;99.90
75091;DHT22;63674;48.048;8.306;2022-12-19T02:35:51;-3.10;99.90
75091;DHT22;63674;48.048;8.306;2022-12-19T02:38:27;-0.70;99.90
75091;DHT22;63674;48.048;8.306;2022-12-19T02:41:00;-2.00;99.90
75091;DHT22;63674;48.048;8.306;2022-12-19T02:43:35;-2.10;99.90
75091;DHT22;63674;48.048;8.306;2022-12-19T02:46:09;-2.00;99.90
75091;DHT22;63674;48.048;8.306;2022-12-19T02:48:38;-2.60;99.90
75091;DHT22;63674;48.048;8.306;2022-12-19T02:51:07;-2.30;99.90
75091;DHT22;63674;48.048;8.306;2022-12-19T02:53:36;-2.20;99.90
75091;DHT22;63674;48.048;8.306;2022-12-19T02:56:26;-1.90;99.90
75091;DHT22;63674;48.048;8.306;2022-12-19T02:59:25;-1.90;99.90
75091;DHT22;63674;48.048;8.306;2022-12-19T03:02:13;-1.80;99.90
75091;DHT22;63674;48.048;8.306;2022-12-19T03:04:51;1.00;99.90
75091;DHT22;63674;48.048;8.306;2022-12-19T03:07:28;-1.40;99.90
75091;DHT22;63674;48.048;8.306;2022-12-19T03:10:06;-1.60;99.90
75091;DHT22;63674;48.048;8.306;2022-12-19T03:12:45;-0.30;99.90
75091;DHT22;63674;48.048;8.306;2022-12-19T03:15:18;-1.40;99.90
75091;DHT22;63674;48.048;8.306;2022-12-19T03:17:48;-1.20;99.90
75091;DHT22;63674;48.048;8.306;2022-12-19T03:20:25;-2.00;99.90
75091;DHT22;63674;48.048;8.306;2022-12-19T03:25:28;-1.50;99.90
75091;DHT22;63674;48.048;8.306;2022-12-19T03:28:00;-1.40;99.90
75091;DHT22;63674;48.048;8.306;2022-12-19T03:30:32;-0.90;99.90
75091;DHT22;63674;48.048;8.306;2022-12-19T03:33:03;-1.40;99.90
75091;DHT22;63674;48.048;8.306;2022-12-19T03:35:33;-0.90;99.90
75091;DHT22;63674;48.048;8.306;2022-12-19T03:38:03;-0.80;99.90
75091;DHT22;63674;48.048;8.306;2022-12-19T03:40:34;-0.60;99.90
75091;DHT22;63674;48.048;8.306;2022-12-19T03:43:05;-0.70;99.90
75091;DHT22;63674;48.048;8.306;2022-12-19T03:45:45;0.20;99.90
75091;DHT22;63674;48.048;8.306;2022-12-19T03:48:22;-1.90;99.90
75091;DHT22;63674;48.048;8.306;2022-12-19T03:51:00;-0.80;99.90
75091;DHT22;63674;48.048;8.306;2022-12-19T03:53:40;-1.00;99.90
75091;DHT22;63674;48.048;8.306;2022-12-19T03:56:19;-0.30;99.90
75091;DHT22;63674;48.048;8.306;2022-12-19T03:58:59;-1.60;99.90
75091;DHT22;63674;48.048;8.306;2022-12-19T04:01:33;-1.00;99.90
75091;DHT22;63674;48.048;8.306;2022-12-19T04:04:05;-1.00;99.90
75091;DHT22;63674;48.048;8.306;2022-12-19T04:06:34;-0.40;99.90
75091;DHT22;63674;48.048;8.306;2022-12-19T04:09:03;-1.50;99.90
75091;DHT22;63674;48.048;8.306;2022-12-19T04:11:35;-1.00;99.90
75091;DHT22;63674;48.048;8.306;2022-12-19T04:14:09;-1.10;99.90
75091;DHT22;63674;48.048;8.306;2022-12-19T04:16:42;-1.10;99.90
75091;DHT22;63674;48.048;8.306;2022-12-19T04:19:18;-1.40;99.90
75091;DHT22;63674;48.048;8.306;2022-12-19T04:21:52;0.20;99.90
75091;DHT22;63674;48.048;8.306;2022-12-19T04:24:28;-1.00;99.90
75091;DHT22;63674;48.048;8.306;2022-12-19T04:27:01;-1.40;99.90
75091;DHT22;63674;48.048;8.306;2022-12-19T04:29:33;-1.30;99.90
75091;DHT22;63674;48.048;8.306;2022-12-19T04:32:03;-1.00;99.90
75091;DHT22;63674;48.048;8.306;2022-12-19T04:34:34;-0.10;99.90
75091;DHT22;63674;48.048;8.306;2022-12-19T04:37:09;-0.90;99.90
75091;DHT22;63674;48.048;8.306;2022-12-19T04:39:38;-0.80;99.90
75091;DHT22;63674;48.048;8.306;2022-12-19T04:42:07;-0.80;99.90
75091;DHT22;63674;48.048;8.306;2022-12-19T04:44:35;-0.90;99.90
75091;DHT22;63674;48.048;8.306;2022-12-19T04:47:04;-1.90;99.90
75091;DHT22;63674;48.048;8.306;2022-12-19T04:49:34;-0.90;99.90
75091;DHT22;63674;48.048;8.306;2022-12-19T04:54:33;1.20;99.90
75091;DHT22;63674;48.048;8.306;2022-12-19T04:57:02;-0.70;99.90
75091;DHT22;63674;48.048;8.306;2022-12-19T04:59:31;-1.00;99.90
75091;DHT22;63674;48.048;8.306;2022-12-19T05:01:59;-1.00;99.90
75091;DHT22;63674;48.048;8.306;2022-12-19T05:04:28;-1.00;99.90
75091;DHT22;63674;48.048;8.306;2022-12-19T05:06:58;-1.20;99.90
75091;DHT22;63674;48.048;8.306;2022-12-19T05:09:27;-1.00;99.90
75091;DHT22;63674;48.048;8.306;2022-12-19T05:11:55;-1.10;99.90
75091;DHT22;63674;48.048;8.306;2022-12-19T05:14:24;-1.00;99.90
75091;DHT22;63674;48.048;8.306;2022-12-19T05:16:53;-1.20;99.90
75091;DHT22;63674;48.048;8.306;2022-12-19T05:19:27;-1.00;99.90
75091;DHT22;63674;48.048;8.306;2022-12-19T05:21:58;-0.50;99.90
75091;DHT22;63674;48.048;8.306;2022-12-19T05:24:27;0.30;99.90
75091;DHT22;63674;48.048;8.306;2022-12-19T05:26:55;-0.90;99.90
75091;DHT22;63674;48.048;8.306;2022-12-19T05:29:24;-0.90;99.90
75091;DHT22;63674;48.048;8.306;2022-12-19T05:31:52;-1.60;99.90
75091;DHT22;63674;48.048;8.306;2022-12-19T05:34:23;-0.90;99.90
75091;DHT22;63674;48.048;8.306;2022-12-19T05:36:51;-0.80;99.90
75091;DHT22;63674;48.048;8.306;2022-12-19T05:39:21;-0.80;99.90
75091;DHT22;63674;48.048;8.306;2022-12-19T05:41:50;0.90;99.90
75091;DHT22;63674;48.048;8.306;2022-12-19T05:44:19;-1.50;99.90
75091;DHT22;63674;48.048;8.306;2022-12-19T05:46:48;-0.50;99.90
75091;DHT22;63674;48.048;8.306;2022-12-19T05:49:16;-1.10;99.90
75091;DHT22;63674;48.048;8.306;2022-12-19T05:51:46;-0.60;99.90
75091;DHT22;63674;48.048;8.306;2022-12-19T05:56:44;-0.90;99.90
75091;DHT22;63674;48.048;8.306;2022-12-19T05:59:13;-1.10;99.90
75091;DHT22;63674;48.048;8.306;2022-12-19T06:01:42;-0.30;99.90
75091;DHT22;63674;48.048;8.306;2022-12-19T06:04:10;-1.00;99.90
75091;DHT22;63674;48.048;8.306;2022-12-19T06:06:39;-0.50;99.90
75091;DHT22;63674;48.048;8.306;2022-12-19T06:11:36;-0.50;99.90
75091;DHT22;63674;48.048;8.306;2022-12-19T06:14:08;-0.80;99.90
75091;DHT22;63674;48.048;8.306;2022-12-19T06:16:37;-0.40;99.90
75091;DHT22;63674;48.048;8.306;2022-12-19T06:19:05;-0.80;99.90
75091;DHT22;63674;48.048;8.306;2022-12-19T06:24:13;-0.70;99.90
75091;DHT22;63674;48.048;8.306;2022-12-19T06:26:42;-0.30;99.90
75091;DHT22;63674;48.048;8.306;2022-12-19T06:29:12;-0.50;99.90
75091;DHT22;63674;48.048;8.306;2022-12-19T06:31:40;-0.40;99.90
75091;DHT22;63674;48.048;8.306;2022-12-19T06:34:09;-0.50;99.90
75091;DHT22;63674;48.048;8.306;2022-12-19T06:36:58;-1.10;99.90
75091;DHT22;63674;48.048;8.306;2022-12-19T06:39:34;-0.50;99.90
75091;DHT22;63674;48.048;8.306;2022-12-19T06:42:05;-0.50;99.90
75091;DHT22;63674;48.048;8.306;2022-12-19T06:44:51;-1.10;99.90
75091;DHT22;63674;48.048;8.306;2022-12-19T06:47:23;-1.10;99.90
75091;DHT22;63674;48.048;8.306;2022-12-19T06:49:52;-0.50;99.90
75091;DHT22;63674;48.048;8.306;2022-12-19T06:52:20;0.60;99.90
75091;DHT22;63674;48.048;8.306;2022-12-19T06:54:49;-0.80;99.90
75091;DHT22;63674;48.048;8.306;2022-12-19T06:57:17;-0.80;99.90
75091;DHT22;63674;48.048;8.306;2022-12-19T06:59:46;-1.10;99.90
75091;DHT22;63674;48.048;8.306;2022-12-19T07:02:25;-1.20;99.90
75091;DHT22;63674;48.048;8.306;2022-12-19T07:04:59;-0.80;99.90
75091;DHT22;63674;48.048;8.306;2022-12-19T07:09:58;-1.00;99.90
75091;DHT22;63674;48.048;8.306;2022-12-19T07:12:27;-1.00;99.90
75091;DHT22;63674;48.048;8.306;2022-12-19T07:14:56;-0.80;99.90
75091;DHT22;63674;48.048;8.306;2022-12-19T07:17:27;-1.40;99.90
75091;DHT22;63674;48.048;8.306;2022-12-19T07:19:57;-0.80;99.90
75091;DHT22;63674;48.048;8.306;2022-12-19T07:22:29;-0.60;99.90
75091;DHT22;63674;48.048;8.306;2022-12-19T07:25:00;-0.80;99.90
75091;DHT22;63674;48.048;8.306;2022-12-19T07:27:30;-0.90;99.90
75091;DHT22;63674;48.048;8.306;2022-12-19T07:30:03;-0.90;99.90
75091;DHT22;63674;48.048;8.306;2022-12-19T07:32:35;-0.90;99.90
75091;DHT22;63674;48.048;8.306;2022-12-19T07:35:06;-1.50;99.90
75091;DHT22;63674;48.048;8.306;2022-12-19T07:37:34;-1.10;99.90
75091;DHT22;63674;48.048;8.306;2022-12-19T07:40:04;-0.90;99.90
75091;DHT22;63674;48.048;8.306;2022-12-19T07:42:33;-0.50;99.90
75091;DHT22;63674;48.048;8.306;2022-12-19T07:45:02;-0.80;99.90
75091;DHT22;63674;48.048;8.306;2022-12-19T07:47:31;-0.90;99.90
75091;DHT22;63674;48.048;8.306;2022-12-19T07:50:01;-0.60;99.90
75091;DHT22;63674;48.048;8.306;2022-12-19T07:52:30;-0.50;99.90
75091;DHT22;63674;48.048;8.306;2022-12-19T07:54:59;-0.70;99.90
75091;DHT22;63674;48.048;8.306;2022-12-19T07:57:27;-0.80;99.90
75091;DHT22;63674;48.048;8.306;2022-12-19T07:59:56;-0.60;99.90
75091;DHT22;63674;48.048;8.306;2022-12-19T08:02:24;-0.20;99.90
75091;DHT22;63674;48.048;8.306;2022-12-19T08:04:53;-0.60;99.90
75091;DHT22;63674;48.048;8.306;2022-12-19T08:07:23;-0.50;99.90
75091;DHT22;63674;48.048;8.306;2022-12-19T08:09:53;-1.10;99.90
75091;DHT22;63674;48.048;8.306;2022-12-19T08:12:22;-0.50;99.90
75091;DHT22;63674;48.048;8.306;2022-12-19T08:17:23;-0.40;99.90
75091;DHT22;63674;48.048;8.306;2022-12-19T08:19:52;0.30;99.90
75091;DHT22;63674;48.048;8.306;2022-12-19T08:22:20;-0.50;99.90
75091;DHT22;63674;48.048;8.306;2022-12-19T08:24:51;-0.40;99.90
75091;DHT22;63674;48.048;8.306;2022-12-19T08:27:19;-0.40;99.90
75091;DHT22;63674;48.048;8.306;2022-12-19T08:29:48;-0.70;99.90
75091;DHT22;63674;48.048;8.306;2022-12-19T08:32:16;-0.50;99.90
75091;DHT22;63674;48.048;8.306;2022-12-19T08:34:47;0.90;99.90
75091;DHT22;63674;48.048;8.306;2022-12-19T08:37:17;-0.40;99.90
75091;DHT22;63674;48.048;8.306;2022-12-19T08:39:45;-0.40;99.90
75091;DHT22;63674;48.048;8.306;2022-12-19T08:42:15;-0.20;99.90
75091;DHT22;63674;48.048;8.306;2022-12-19T08:44:44;-0.70;99.90
75091;DHT22;63674;48.048;8.306;2022-12-19T08:47:13;-0.40;99.90
75091;DHT22;63674;48.048;8.306;2022-12-19T08:52:10;-0.40;99.90
75091;DHT22;63674;48.048;8.306;2022-12-19T08:54:39;-0.20;99.90
75091;DHT22;63674;48.048;8.306;2022-12-19T08:59:38;-0.40;99.90
75091;DHT22;63674;48.048;8.306;2022-12-19T09:02:08;-0.10;99.90
75091;DHT22;63674;48.048;8.306;2022-12-19T09:04:37;-0.40;99.90
75091;DHT22;63674;48.048;8.306;2022-12-19T09:09:55;-0.30;99.90
75091;DHT22;63674;48.048;8.306;2022-12-19T09:12:24;0.10;99.90
75091;DHT22;63674;48.048;8.306;2022-12-19T09:14:54;1.00;99.90
75091;DHT22;63674;48.048;8.306;2022-12-19T09:17:23;0.20;99.90
75091;DHT22;63674;48.048;8.306;2022-12-19T09:19:52;0.40;99.90
75091;DHT22;63674;48.048;8.306;2022-12-19T09:24:55;0.80;99.90
75091;DHT22;63674;48.048;8.306;2022-12-19T09:27:23;0.40;99.90
75091;DHT22;63674;48.048;8.306;2022-12-19T09:29:53;0.70;99.90
75091;DHT22;63674;48.048;8.306;2022-12-19T09:32:22;0.70;99.90
75091;DHT22;63674;48.048;8.306;2022-12-19T09:37:19;0.70;99.90
75091;DHT22;63674;48.048;8.306;2022-12-19T09:39:48;0.70;99.90
75091;DHT22;63674;48.048;8.306;2022-12-19T09:42:34;-0.20;99.90
75091;DHT22;63674;48.048;8.306;2022-12-19T09:45:24;0.90;99.90
75091;DHT22;63674;48.048;8.306;2022-12-19T09:48:01;1.00;99.90
75091;DHT22;63674;48.048;8.306;2022-12-19T09:50:48;1.00;99.90
75091;DHT22;63674;48.048;8.306;2022-12-19T09:53:40;1.10;99.90
75091;DHT22;63674;48.048;8.306;2022-12-19T09:56:21;1.10;99.90
75091;DHT22;63674;48.048;8.306;2022-12-19T09:58:57;0.20;99.90
75091;DHT22;63674;48.048;8.306;2022-12-19T10:01:33;1.10;99.90
75091;DHT22;63674;48.048;8.306;2022-12-19T10:04:12;0.70;99.90
75091;DHT22;63674;48.048;8.306;2022-12-19T10:06:41;1.20;99.90
75091;DHT22;63674;48.048;8.306;2022-12-19T10:09:33;1.20;99.90
75091;DHT22;63674;48.048;8.306;2022-12-19T10:12:34;1.20;99.90
75091;DHT22;63674;48.048;8.306;2022-12-19T10:15:24;1.30;99.90
75091;DHT22;63674;48.048;8.306;2022-12-19T10:18:14;1.00;99.90
75091;DHT22;63674;48.048;8.306;2022-12-19T10:20:58;1.40;99.90
75091;DHT22;63674;48.048;8.306;2022-12-19T10:26:50;1.70;99.90
75091;DHT22;63674;48.048;8.306;2022-12-19T10:29:36;1.50;99.90
75091;DHT22;63674;48.048;8.306;2022-12-19T10:32:16;1.50;99.90
75091;DHT22;63674;48.048;8.306;2022-12-19T10:34:52;1.50;99.90
75091;DHT22;63674;48.048;8.306;2022-12-19T10:37:24;1.60;99.90
75091;DHT22;63674;48.048;8.306;2022-12-19T10:40:12;1.60;99.90
75091;DHT22;63674;48.048;8.306;2022-12-19T10:42:57;1.20;99.90
75091;DHT22;63674;48.048;8.306;2022-12-19T10:45:41;1.40;99.90
75091;DHT22;63674;48.048;8.306;2022-12-19T10:48:16;1.80;99.90
75091;DHT22;63674;48.048;8.306;2022-12-19T10:50:57;1.80;99.90
75091;DHT22;63674;48.048;8.306;2022-12-19T10:53:33;1.80;99.90
75091;DHT22;63674;48.048;8.306;2022-12-19T10:56:10;1.60;99.90
75091;DHT22;63674;48.048;8.306;2022-12-19T10:58:42;0.70;99.90
75091;DHT22;63674;48.048;8.306;2022-12-19T11:01:13;2.60;99.90
75091;DHT22;63674;48.048;8.306;2022-12-19T11:03:45;2.00;99.90
75091;DHT22;63674;48.048;8.306;2022-12-19T11:06:48;2.90;99.90
75091;DHT22;63674;48.048;8.306;2022-12-19T11:09:24;1.90;99.90
75091;DHT22;63674;48.048;8.306;2022-12-19T11:12:09;-0.10;99.90
75091;DHT22;63674;48.048;8.306;2022-12-19T11:15:13;1.50;99.90
75091;DHT22;63674;48.048;8.306;2022-12-19T11:18:06;1.20;99.90
75091;DHT22;63674;48.048;8.306;2022-12-19T11:20:58;2.00;99.90
75091;DHT22;63674;48.048;8.306;2022-12-19T11:23:52;1.90;99.90
75091;DHT22;63674;48.048;8.306;2022-12-19T11:26:44;1.90;99.90
75091;DHT22;63674;48.048;8.306;2022-12-19T11:29:43;1.90;99.90
75091;DHT22;63674;48.048;8.306;2022-12-19T11:32:35;2.00;99.90
75091;DHT22;63674;48.048;8.306;2022-12-19T11:35:17;1.90;99.90
75091;DHT22;63674;48.048;8.306;2022-12-19T11:37:53;2.60;99.90
75091;DHT22;63674;48.048;8.306;2022-12-19T11:40:37;1.80;99.90
75091;DHT22;63674;48.048;8.306;2022-12-19T11:43:19;1.50;99.90
75091;DHT22;63674;48.048;8.306;2022-12-19T11:46:21;1.90;99.90
75091;DHT22;63674;48.048;8.306;2022-12-19T11:48:57;1.80;99.90
75091;DHT22;63674;48.048;8.306;2022-12-19T11:51:33;2.00;99.90
75091;DHT22;63674;48.048;8.306;2022-12-19T11:54:12;1.80;99.90
75091;DHT22;63674;48.048;8.306;2022-12-19T11:56:46;1.80;99.90
75091;DHT22;63674;48.048;8.306;2022-12-19T11:59:17;2.00;99.90
75091;DHT22;63674;48.048;8.306;2022-12-19T12:08:40;2.00;99.90
75091;DHT22;63674;48.048;8.306;2022-12-19T12:11:41;2.90;99.90
75091;DHT22;63674;48.048;8.306;2022-12-19T12:14:44;1.80;99.90
75091;DHT22;63674;48.048;8.306;2022-12-19T12:17:46;2.10;99.90
75091;DHT22;63674;48.048;8.306;2022-12-19T12:20:47;2.60;99.90
75091;DHT22;63674;48.048;8.306;2022-12-19T12:23:48;2.10;99.90
75091;DHT22;63674;48.048;8.306;2022-12-19T12:26:54;2.20;99.90
75091;DHT22;63674;48.048;8.306;2022-12-19T12:29:53;2.90;99.90
75091;DHT22;63674;48.048;8.306;2022-12-19T12:33:02;2.30;99.90
75091;DHT22;63674;48.048;8.306;2022-12-19T12:35:59;2.10;99.90
75091;DHT22;63674;48.048;8.306;2022-12-19T12:39:01;2.40;99.90
75091;DHT22;63674;48.048;8.306;2022-12-19T12:41:40;2.60;99.90
75091;DHT22;63674;48.048;8.306;2022-12-19T12:44:33;2.30;99.90
75091;DHT22;63674;48.048;8.306;2022-12-19T12:47:16;2.50;99.90
75091;DHT22;63674;48.048;8.306;2022-12-19T12:49:49;2.40;99.90
75091;DHT22;63674;48.048;8.306;2022-12-19T12:52:24;2.50;99.90
75091;DHT22;63674;48.048;8.306;2022-12-19T12:54:57;2.30;99.90
75091;DHT22;63674;48.048;8.306;2022-12-19T12:57:34;0.20;99.90
75091;DHT22;63674;48.048;8.306;2022-12-19T13:00:17;2.10;99.90
75091;DHT22;63674;48.048;8.306;2022-12-19T13:02:53;3.20;99.90
75091;DHT22;63674;48.048;8.306;2022-12-19T13:05:50;2.40;99.90
75091;DHT22;63674;48.048;8.306;2022-12-19T13:08:44;2.00;99.90
75091;DHT22;63674;48.048;8.306;2022-12-19T13:14:42;2.20;99.90
75091;DHT22;63674;48.048;8.306;2022-12-19T13:17:18;1.90;99.90
75091;DHT22;63674;48.048;8.306;2022-12-19T13:19:55;2.30;99.90
75091;DHT22;63674;48.048;8.306;2022-12-19T13:22:38;1.50;99.90
75091;DHT22;63674;48.048;8.306;2022-12-19T13:28:37;2.10;99.90
75091;DHT22;63674;48.048;8.306;2022-12-19T13:31:17;1.60;99.90
75091;DHT22;63674;48.048;8.306;2022-12-19T13:34:15;2.70;99.90
75091;DHT22;63674;48.048;8.306;2022-12-19T13:37:21;2.40;99.90
75091;DHT22;63674;48.048;8.306;2022-12-19T13:40:27;2.70;99.90
75091;DHT22;63674;48.048;8.306;2022-12-19T13:43:06;1.50;99.90
75091;DHT22;63674;48.048;8.306;2022-12-19T13:46:01;2.40;99.90
75091;DHT22;63674;48.048;8.306;2022-12-19T13:48:33;2.40;99.90
75091;DHT22;63674;48.048;8.306;2022-12-19T13:51:05;2.40;99.90
75091;DHT22;63674;48.048;8.306;2022-12-19T13:53:36;2.40;99.90
75091;DHT22;63674;48.048;8.306;2022-12-19T13:56:11;2.40;99.90
75091;DHT22;63674;48.048;8.306;2022-12-19T13:58:45;2.30;99.90
75091;DHT22;63674;48.048;8.306;2022-12-19T14:01:20;2.40;99.90
75091;DHT22;63674;48.048;8.306;2022-12-19T14:03:53;2.10;99.90
75091;DHT22;63674;48.048;8.306;2022-12-19T14:06:36;2.30;99.90
75091;DHT22;63674;48.048;8.306;2022-12-19T14:09:20;2.70;99.90
75091;DHT22;63674;48.048;8.306;2022-12-19T14:12:15;2.30;99.90
75091;DHT22;63674;48.048;8.306;2022-12-19T14:15:27;2.30;99.90
75091;DHT22;63674;48.048;8.306;2022-12-19T14:17:59;2.00;99.90
75091;DHT22;63674;48.048;8.306;2022-12-19T14:20:49;2.20;99.90
75091;DHT22;63674;48.048;8.306;2022-12-19T14:23:38;2.30;99.90
75091;DHT22;63674;48.048;8.306;2022-12-19T14:26:16;2.50;99.90
75091;DHT22;63674;48.048;8.306;2022-12-19T14:29:12;2.20;99.90
75091;DHT22;63674;48.048;8.306;2022-12-19T14:31:54;2.10;99.90
75091;DHT22;63674;48.048;8.306;2022-12-19T14:34:43;2.20;99.90
75091;DHT22;63674;48.048;8.306;2022-12-19T14:37:37;1.90;99.90
75091;DHT22;63674;48.048;8.306;2022-12-19T14:40:31;2.10;99.90
75091;DHT22;63674;48.048;8.306;2022-12-19T14:43:23;0.70;99.90
75091;DHT22;63674;48.048;8.306;2022-12-19T14:46:27;2.00;99.90
75091;DHT22;63674;48.048;8.306;2022-12-19T14:49:24;1.90;99.90
75091;DHT22;63674;48.048;8.306;2022-12-19T14:52:40;1.90;99.90
75091;DHT22;63674;48.048;8.306;2022-12-19T14:55:31;2.10;99.90
75091;DHT22;63674;48.048;8.306;2022-12-19T14:58:28;2.00;99.90
75091;DHT22;63674;48.048;8.306;2022-12-19T15:01:21;1.90;99.90
75091;DHT22;63674;48.048;8.306;2022-12-19T15:03:54;1.60;99.90
75091;DHT22;63674;48.048;8.306;2022-12-19T15:06:45;1.50;99.90
75091;DHT22;63674;48.048;8.306;2022-12-19T15:09:41;1.60;99.90
75091;DHT22;63674;48.048;8.306;2022-12-19T15:12:46;1.80;99.90
75091;DHT22;63674;48.048;8.306;2022-12-19T15:15:56;1.40;99.90
75091;DHT22;63674;48.048;8.306;2022-12-19T15:18:37;1.40;99.90
75091;DHT22;63674;48.048;8.306;2022-12-19T15:21:09;1.30;99.90
75091;DHT22;63674;48.048;8.306;2022-12-19T15:23:40;1.30;99.90
75091;DHT22;63674;48.048;8.306;2022-12-19T15:26:13;1.30;99.90
75091;DHT22;63674;48.048;8.306;2022-12-19T15:28:45;1.30;99.90
75091;DHT22;63674;48.048;8.306;2022-12-19T15:31:29;1.10;99.90
75091;DHT22;63674;48.048;8.306;2022-12-19T15:34:05;1.30;99.90
75091;DHT22;63674;48.048;8.306;2022-12-19T15:37:08;1.10;99.90
75091;DHT22;63674;48.048;8.306;2022-12-19T15:39:38;1.20;99.90
75091;DHT22;63674;48.048;8.306;2022-12-19T15:42:16;1.20;99.90
75091;DHT22;63674;48.048;8.306;2022-12-19T15:44:47;1.10;99.90
75091;DHT22;63674;48.048;8.306;2022-12-19T15:47:24;2.20;99.90
75091;DHT22;63674;48.048;8.306;2022-12-19T15:49:58;1.00;99.90
75091;DHT22;63674;48.048;8.306;2022-12-19T15:52:29;1.10;99.90
75091;DHT22;63674;48.048;8.306;2022-12-19T15:54:58;1.40;99.90
75091;DHT22;63674;48.048;8.306;2022-12-19T15:57:29;1.10;99.90
75091;DHT22;63674;48.048;8.306;2022-12-19T16:00:03;1.10;99.90
75091;DHT22;63674;48.048;8.306;2022-12-19T16:02:36;1.10;99.90
75091;DHT22;63674;48.048;8.306;2022-12-19T16:05:26;1.10;99.90
75091;DHT22;63674;48.048;8.306;2022-12-19T16:07:55;1.50;99.90
75091;DHT22;63674;48.048;8.306;2022-12-19T16:10:25;1.10;99.90
75091;DHT22;63674;48.048;8.306;2022-12-19T16:12:54;0.60;99.90
75091;DHT22;63674;48.048;8.306;2022-12-19T16:15:26;1.10;99.90
75091;DHT22;63674;48.048;8.306;2022-12-19T16:17:59;0.70;99.90
75091;DHT22;63674;48.048;8.306;2022-12-19T16:20:31;0.50;99.90
75091;DHT22;63674;48.048;8.306;2022-12-19T16:23:02;1.00;99.90
75091;DHT22;63674;48.048;8.306;2022-12-19T16:25:33;1.20;99.90
75091;DHT22;63674;48.048;8.306;2022-12-19T16:28:04;2.10;99.90
75091;DHT22;63674;48.048;8.306;2022-12-19T16:30:34;0.90;99.90
75091;DHT22;63674;48.048;8.306;2022-12-19T16:33:17;0.90;99.90
75091;DHT22;63674;48.048;8.306;2022-12-19T16:38:33;0.90;99.90
75091;DHT22;63674;48.048;8.306;2022-12-19T16:41:02;1.10;99.90
75091;DHT22;63674;48.048;8.306;2022-12-19T16:43:32;0.90;99.90
75091;DHT22;63674;48.048;8.306;2022-12-19T16:46:04;0.90;99.90
75091;DHT22;63674;48.048;8.306;2022-12-19T16:48:36;0.90;99.90
75091;DHT22;63674;48.048;8.306;2022-12-19T16:51:06;1.20;99.90
75091;DHT22;63674;48.048;8.306;2022-12-19T16:53:41;1.00;99.90
75091;DHT22;63674;48.048;8.306;2022-12-19T16:56:19;1.00;99.90
75091;DHT22;63674;48.048;8.306;2022-12-19T16:58:51;2.30;99.90
75091;DHT22;63674;48.048;8.306;2022-12-19T17:01:20;0.90;99.90
75091;DHT22;63674;48.048;8.306;2022-12-19T17:03:51;0.90;99.90
75091;DHT22;63674;48.048;8.306;2022-12-19T17:06:21;1.40;99.90
75091;DHT22;63674;48.048;8.306;2022-12-19T17:08:50;0.90;99.90
75091;DHT22;63674;48.048;8.306;2022-12-19T17:11:20;0.90;99.90
75091;DHT22;63674;48.048;8.306;2022-12-19T17:13:53;0.90;99.90
75091;DHT22;63674;48.048;8.306;2022-12-19T17:16:24;1.60;99.90
75091;DHT22;63674;48.048;8.306;2022-12-19T17:18:54;1.10;99.90
75091;DHT22;63674;48.048;8.306;2022-12-19T17:21:25;0.90;99.90
75091;DHT22;63674;48.048;8.306;2022-12-19T17:23:53;1.70;99.90
75091;DHT22;63674;48.048;8.306;2022-12-19T17:26:22;1.30;99.90
75091;DHT22;63674;48.048;8.306;2022-12-19T17:28:51;0.90;99.90
75091;DHT22;63674;48.048;8.306;2022-12-19T17:31:22;0.80;99.90